createdAt,value
2022-10-19T00:03:45.514Z,60.27
2022-10-19T00:08:48.575Z,61.19
2022-10-19T00:13:52.749Z,68.31
2022-10-19T00:18:57.725Z,60.65
2022-10-19T00:24:00.617Z,53.59
2022-10-19T00:29:04.428Z,54.57
2022-10-19T00:34:07.565Z,56.37
2022-10-19T00:39:15.616Z,57.94
2022-10-19T00:44:18.407Z,58.91
2022-10-19T00:49:26.798Z,59.53
2022-10-19T00:54:34.816Z,60.69
2022-10-19T00:59:39.475Z,67.72
2022-10-19T01:04:47.821Z,60.79
2022-10-19T01:09:51.210Z,53.87
2022-10-19T01:15:03.501Z,55.26
2022-10-19T01:20:33.026Z,57.19
2022-10-19T01:25:42.462Z,59.16
2022-10-19T01:31:19.754Z,60.00
2022-10-19T01:36:34.576Z,61.02
2022-10-19T01:41:43.997Z,67.65
2022-10-19T01:46:53.667Z,60.29
2022-10-19T01:52:02.008Z,54.00
2022-10-19T01:57:08.232Z,55.81
2022-10-19T02:02:14.010Z,57.69
2022-10-19T02:07:20.649Z,59.58
2022-10-19T02:12:25.933Z,60.60
2022-10-19T02:17:33.447Z,67.12
2022-10-19T02:22:36.715Z,61.12
2022-10-19T02:27:44.273Z,54.37
2022-10-19T02:32:47.488Z,55.49
2022-10-19T02:37:50.808Z,57.57
2022-10-19T02:43:01.775Z,58.75
2022-10-19T02:48:07.830Z,59.86
2022-10-19T02:53:10.655Z,67.10
2022-10-19T02:58:13.674Z,61.56
2022-10-19T03:03:16.683Z,53.95
2022-10-19T03:08:19.835Z,55.12
2022-10-19T03:13:22.643Z,57.02
2022-10-19T03:18:25.464Z,58.60
2022-10-19T03:23:29.409Z,60.28
2022-10-19T03:28:32.810Z,67.34
2022-10-19T03:33:35.677Z,60.17
2022-10-19T03:38:38.492Z,54.76
2022-10-19T03:43:41.404Z,56.22
2022-10-19T03:48:44.424Z,58.09
2022-10-19T03:53:48.317Z,58.96
2022-10-19T03:58:53.825Z,60.65
2022-10-19T04:03:59.297Z,67.86
2022-10-19T04:09:04.115Z,60.93
2022-10-19T04:14:07.142Z,54.12
2022-10-19T04:19:14.493Z,55.55
2022-10-19T04:24:19.161Z,57.26
2022-10-19T04:29:26.467Z,59.29
2022-10-19T04:34:35.187Z,60.06
2022-10-19T04:39:43.218Z,66.60
2022-10-19T04:44:46.007Z,58.94
2022-10-19T04:49:48.874Z,54.09
2022-10-19T04:54:52.661Z,55.57
2022-10-19T04:59:58.887Z,57.06
2022-10-19T05:05:02.075Z,58.95
2022-10-19T05:10:06.042Z,59.98
2022-10-19T05:15:09.355Z,66.84
2022-10-19T05:20:12.434Z,60.31
2022-10-19T05:25:15.296Z,53.59
2022-10-19T05:30:19.070Z,55.05
2022-10-19T05:35:22.709Z,56.95
2022-10-19T05:40:26.017Z,57.99
2022-10-19T05:45:29.050Z,59.44
2022-10-19T05:50:32.638Z,60.61
2022-10-19T05:55:37.706Z,66.35
2022-10-19T06:00:40.582Z,58.25
2022-10-19T06:05:43.680Z,52.98
2022-10-19T06:10:47.437Z,54.67
2022-10-19T06:15:51.432Z,55.84
2022-10-19T06:20:54.428Z,57.20
2022-10-19T06:25:59.598Z,58.29
2022-10-19T06:31:05.934Z,58.95
2022-10-19T06:36:16.985Z,59.51
2022-10-19T06:41:21.263Z,60.14
2022-10-19T06:46:25.828Z,60.76
2022-10-19T06:51:30.790Z,67.17
2022-10-19T06:56:33.897Z,58.78
2022-10-19T07:01:36.731Z,52.52
2022-10-19T07:06:39.884Z,53.82
2022-10-19T07:11:46.158Z,54.72
2022-10-19T07:16:50.631Z,55.68
2022-10-19T07:21:53.604Z,56.39
2022-10-19T07:26:56.519Z,57.40
2022-10-19T07:31:59.396Z,57.57
2022-10-19T07:37:02.435Z,57.82
2022-10-19T07:42:05.383Z,59.03
2022-10-19T07:47:08.360Z,59.81
2022-10-19T07:52:11.370Z,60.34
2022-10-19T07:57:15.299Z,61.14
2022-10-19T08:02:20.355Z,61.44
2022-10-19T08:07:23.522Z,61.55
2022-10-19T08:12:26.880Z,66.71
2022-10-19T08:17:30.943Z,57.29
2022-10-19T08:22:34.351Z,53.20
2022-10-19T08:27:37.477Z,54.93
2022-10-19T08:32:40.312Z,56.28
2022-10-19T08:37:45.475Z,56.97
2022-10-19T08:43:24.900Z,57.62
2022-10-19T08:48:30.441Z,57.40
2022-10-19T08:53:37.914Z,57.56
2022-10-19T08:59:22.408Z,57.18
2022-10-19T09:04:41.904Z,57.97
2022-10-19T09:09:51.516Z,56.78
2022-10-19T09:15:07.701Z,57.39
2022-10-19T09:20:18.570Z,57.80
2022-10-19T09:25:23.267Z,57.26
2022-10-19T09:30:28.659Z,57.41
2022-10-19T09:35:41.565Z,56.20
2022-10-19T09:40:44.839Z,54.18
2022-10-19T09:46:19.792Z,53.13
2022-10-19T09:51:23.786Z,52.33
2022-10-19T09:56:28.332Z,50.78
2022-10-19T10:01:47.340Z,51.66
2022-10-19T10:06:50.691Z,51.96
2022-10-19T10:11:56.964Z,52.26
2022-10-19T10:17:07.420Z,51.63
2022-10-19T10:22:25.635Z,51.27
2022-10-19T10:27:32.902Z,50.61
2022-10-19T10:32:39.225Z,50.42
2022-10-19T10:37:45.270Z,49.82
2022-10-19T10:42:50.623Z,49.38
2022-10-19T10:47:54.269Z,49.97
2022-10-19T10:53:19.031Z,49.62
2022-10-19T10:58:40.927Z,49.75
2022-10-19T11:03:50.945Z,50.14
2022-10-19T11:09:05.473Z,49.36
2022-10-19T11:14:32.933Z,48.70
2022-10-19T11:19:44.605Z,48.70
2022-10-19T11:25:17.700Z,49.00
2022-10-19T11:30:23.240Z,47.56
2022-10-19T11:35:40.582Z,47.73
2022-10-19T11:41:17.382Z,48.07
2022-10-19T11:46:36.320Z,48.72
2022-10-19T11:51:59.645Z,49.08
2022-10-19T11:57:12.342Z,49.12
2022-10-19T12:02:27.365Z,49.41
2022-10-19T12:07:49.400Z,49.21
2022-10-19T12:12:58.954Z,49.51
2022-10-19T12:18:12.665Z,49.18
2022-10-19T12:23:38.261Z,49.70
2022-10-19T12:28:46.991Z,50.13
2022-10-19T12:34:20.380Z,50.58
2022-10-19T12:39:30.093Z,51.55
2022-10-19T12:45:10.845Z,50.43
2022-10-19T12:50:13.845Z,50.54
2022-10-19T12:55:16.675Z,50.19
2022-10-19T13:00:24.466Z,50.12
2022-10-19T13:05:29.917Z,50.37
2022-10-19T13:10:33.778Z,50.47
2022-10-19T13:15:36.574Z,50.94
2022-10-19T13:25:44.311Z,51.75
2022-10-19T13:30:47.197Z,52.13
2022-10-19T13:36:05.950Z,52.37
2022-10-19T13:41:18.665Z,52.55
2022-10-19T13:46:30.737Z,52.88
2022-10-19T13:51:41.275Z,53.26
2022-10-19T13:57:11.849Z,53.26
2022-10-19T14:02:39.025Z,54.21
2022-10-19T14:07:54.373Z,56.25
2022-10-19T14:12:58.457Z,55.15
2022-10-19T14:18:03.818Z,55.40
2022-10-19T14:23:27.179Z,54.23
2022-10-19T14:28:31.954Z,53.94
2022-10-19T14:33:38.352Z,53.72
2022-10-19T14:38:46.654Z,53.78
2022-10-19T14:43:49.671Z,54.02
2022-10-19T14:48:58.513Z,54.22
2022-10-19T14:54:08.346Z,54.34
2022-10-19T14:59:25.084Z,54.48
2022-10-19T15:04:33.600Z,54.66
2022-10-19T15:09:48.222Z,54.76
2022-10-19T15:14:53.880Z,55.04
2022-10-19T15:20:02.812Z,55.41
2022-10-19T15:25:09.298Z,56.67
2022-10-19T15:30:17.390Z,56.86
2022-10-19T15:35:29.332Z,57.12
2022-10-19T15:40:40.714Z,57.20
2022-10-19T15:45:44.116Z,57.61
2022-10-19T15:50:50.176Z,57.60
2022-10-19T15:55:53.309Z,57.73
2022-10-19T16:00:56.237Z,57.82
2022-10-19T16:05:59.187Z,57.55
2022-10-19T16:11:04.264Z,57.56
2022-10-19T16:16:11.459Z,57.47
2022-10-19T16:21:15.336Z,57.40
2022-10-19T16:26:18.852Z,57.44
2022-10-19T16:31:23.155Z,57.48
2022-10-19T16:36:26.218Z,57.43
2022-10-19T16:41:29.113Z,57.59
2022-10-19T16:46:32.157Z,57.87
2022-10-19T16:51:40.173Z,58.04
2022-10-19T16:56:45.916Z,58.30
2022-10-19T17:01:58.111Z,58.75
2022-10-19T17:07:01.005Z,59.04
2022-10-19T17:12:04.754Z,59.97
2022-10-19T17:17:08.352Z,60.09
2022-10-19T17:22:11.301Z,60.66
2022-10-19T17:27:14.464Z,60.66
2022-10-19T17:32:17.581Z,60.89
2022-10-19T17:37:20.482Z,61.21
2022-10-19T17:42:23.416Z,61.39
2022-10-19T17:47:26.295Z,61.79
2022-10-19T17:52:29.122Z,61.74
2022-10-19T17:57:32.579Z,62.11
2022-10-19T18:02:36.044Z,68.64
2022-10-19T18:07:39.106Z,62.05
2022-10-19T18:12:42.021Z,52.47
2022-10-19T18:17:44.880Z,52.19
2022-10-19T18:22:48.308Z,53.70
2022-10-19T18:27:51.240Z,55.03
2022-10-19T18:32:54.358Z,56.14
2022-10-19T18:37:57.446Z,57.08
2022-10-19T18:43:00.455Z,57.77
2022-10-19T18:48:03.564Z,58.38
2022-10-19T18:53:06.457Z,59.17
2022-10-19T18:58:10.090Z,59.56
2022-10-19T19:03:13.010Z,60.07
2022-10-19T19:08:16.090Z,60.61
2022-10-19T19:13:18.974Z,60.89
2022-10-19T19:18:22.885Z,61.35
2022-10-19T19:23:25.789Z,61.56
2022-10-19T19:28:28.739Z,69.28
2022-10-19T19:33:31.802Z,61.55
2022-10-19T19:38:35.436Z,51.85
2022-10-19T19:43:39.271Z,51.91
2022-10-19T19:48:44.310Z,54.43
2022-10-19T19:53:48.180Z,55.19
2022-10-19T19:58:55.846Z,56.07
2022-10-19T20:04:00.161Z,56.75
2022-10-19T20:09:04.656Z,57.90
2022-10-19T20:14:07.651Z,58.43
2022-10-19T20:19:13.382Z,59.11
2022-10-19T20:24:17.715Z,59.62
2022-10-19T20:29:22.264Z,58.98
2022-10-19T20:34:25.199Z,60.21
2022-10-19T20:39:28.374Z,60.80
2022-10-19T20:44:31.385Z,61.29
2022-10-19T20:49:34.616Z,68.77
2022-10-19T20:54:37.555Z,60.89
2022-10-19T20:59:40.528Z,51.97
2022-10-19T21:04:43.694Z,52.71
2022-10-19T21:09:46.593Z,53.99
2022-10-19T21:14:49.478Z,55.00
2022-10-19T21:19:55.026Z,56.48
2022-10-19T21:25:00.100Z,57.27
2022-10-19T21:30:04.107Z,58.49
2022-10-19T21:35:07.508Z,59.84
2022-10-19T21:40:10.977Z,60.21
2022-10-19T21:45:30.672Z,61.04
2022-10-19T21:50:34.271Z,68.65
2022-10-19T21:55:37.728Z,61.19
2022-10-19T22:00:40.834Z,51.91
2022-10-19T22:05:53.497Z,52.73
2022-10-19T22:10:56.602Z,53.76
2022-10-19T22:16:17.428Z,54.52
2022-10-19T22:21:24.234Z,55.40
2022-10-19T22:26:31.450Z,56.17
2022-10-19T22:31:35.980Z,56.28
2022-10-19T22:36:39.210Z,57.09
2022-10-19T22:42:38.470Z,56.94
2022-10-19T22:47:59.961Z,56.45
2022-10-19T22:53:03.117Z,57.31
2022-10-19T22:58:07.624Z,57.54
2022-10-19T23:03:10.820Z,57.96
2022-10-19T23:08:13.738Z,58.30
2022-10-19T23:13:16.994Z,58.60
2022-10-19T23:18:20.701Z,58.75
2022-10-19T23:23:24.539Z,58.92
2022-10-19T23:28:28.279Z,59.19
2022-10-19T23:33:32.017Z,59.39
2022-10-19T23:38:35.857Z,59.56
2022-10-19T23:43:38.822Z,59.85
2022-10-19T23:48:42.277Z,59.99
2022-10-19T23:53:47.430Z,60.55
2022-10-19T23:58:50.952Z,60.54
